Time;durP1;ratioP1;P1;durP2;ratioP2;P2;SDS_P1;SDS_P2;PMS_P1;PMS_P2;Temp;Humidity;BMP_temperature;BMP_pressure;BME280_temperature;BME280_humidity;BME280_pressure;Samples;Min_cycle;Max_cycle;Signal;HPM_P1;HPM_P2
2023/09/10 00:01:09;;;;;;;16.80;11.40;;;19.80;73.10;;;;;;5087839;28;20483;-79
2023/09/10 00:03:38;;;;;;;14.40;11.93;;;19.70;73.20;;;;;;5105126;28;20459;-82
2023/09/10 00:06:07;;;;;;;15.50;11.37;;;19.70;73.20;;;;;;5106125;28;20454;-79
2023/09/10 00:08:37;;;;;;;16.93;12.83;;;19.60;73.30;;;;;;5107328;28;20459;-79
2023/09/10 00:11:05;;;;;;;15.33;11.90;;;19.60;73.40;;;;;;5109100;27;20475;-80
2023/09/10 00:13:33;;;;;;;16.10;11.87;;;19.60;73.50;;;;;;5107755;28;20551;-78
2023/09/10 00:16:02;;;;;;;15.87;11.83;;;19.60;73.60;;;;;;5104243;28;20457;-80
2023/09/10 00:18:30;;;;;;;14.67;11.30;;;19.50;73.70;;;;;;5086342;28;20545;-79
2023/09/10 00:20:58;;;;;;;15.07;11.13;;;19.50;73.60;;;;;;5087842;28;21255;-80
2023/09/10 00:23:30;;;;;;;13.30;11.00;;;19.40;73.60;;;;;;5110824;27;20466;-81
2023/09/10 00:25:59;;;;;;;12.80;10.30;;;19.40;73.80;;;;;;5111947;27;20455;-83
2023/09/10 00:28:27;;;;;;;13.70;10.53;;;19.40;73.90;;;;;;5109845;27;20439;-79
2023/09/10 00:30:55;;;;;;;15.10;10.97;;;19.30;74.00;;;;;;5109578;28;20486;-77
2023/09/10 00:33:24;;;;;;;15.03;10.87;;;19.30;73.90;;;;;;5094452;27;21256;-83
2023/09/10 00:35:52;;;;;;;14.40;10.53;;;19.40;73.90;;;;;;5109509;28;20454;-78
2023/09/10 00:38:20;;;;;;;15.10;10.70;;;19.40;74.00;;;;;;5104198;27;20503;-77
2023/09/10 00:40:48;;;;;;;14.67;11.40;;;19.40;74.00;;;;;;5109918;28;20466;-79
2023/09/10 00:43:17;;;;;;;16.33;11.20;;;19.40;73.90;;;;;;5088925;28;20746;-78
2023/09/10 00:45:45;;;;;;;16.17;11.13;;;19.40;73.90;;;;;;5111847;27;20895;-80
2023/09/10 00:48:13;;;;;;;18.63;11.80;;;19.40;73.80;;;;;;5092511;28;20454;-79
2023/09/10 00:50:41;;;;;;;16.60;12.43;;;19.40;73.80;;;;;;5109272;28;20804;-79
2023/09/10 00:53:10;;;;;;;14.37;10.40;;;19.30;73.90;;;;;;5089654;28;20459;-80
2023/09/10 00:55:38;;;;;;;14.27;10.50;;;19.30;73.90;;;;;;5111056;27;20505;-78
2023/09/10 00:58:08;;;;;;;15.93;10.40;;;19.30;73.80;;;;;;5107346;28;20503;-79
2023/09/10 01:00:37;;;;;;;15.63;10.40;;;19.30;73.80;;;;;;5108141;28;20851;-81
2023/09/10 01:03:07;;;;;;;16.73;12.03;;;19.30;73.80;;;;;;5104375;28;20452;-78
2023/09/10 01:05:37;;;;;;;14.73;11.37;;;19.20;73.70;;;;;;5106862;28;20979;-82
2023/09/10 01:08:05;;;;;;;14.17;11.20;;;19.20;73.70;;;;;;5090647;28;20969;-78
2023/09/10 01:10:42;;;;;;;15.87;11.33;;;19.10;73.70;;;;;;5092069;28;20455;-81
2023/09/10 01:13:15;;;;;;;14.70;12.30;;;19.00;73.90;;;;;;5108555;28;20463;-79
2023/09/10 01:15:52;;;;;;;15.17;11.03;;;19.00;74.00;;;;;;5086671;28;20456;-79
2023/09/10 01:18:24;;;;;;;17.20;12.13;;;18.90;74.00;;;;;;5102271;28;20479;-77
2023/09/10 01:21:28;;;;;;;18.53;12.60;;;18.80;74.10;;;;;;5109676;28;21124;-80
2023/09/10 01:24:07;;;;;;;16.93;12.30;;;18.80;74.30;;;;;;5107731;28;20446;-79
2023/09/10 01:26:38;;;;;;;16.87;12.33;;;18.80;74.30;;;;;;5108885;28;20443;-80
2023/09/10 01:29:06;;;;;;;14.80;11.23;;;18.80;74.30;;;;;;5103038;28;20456;-80
2023/09/10 01:31:39;;;;;;;25.50;11.77;;;18.80;74.30;;;;;;5088720;28;20853;-80
2023/09/10 01:38:27;;;;;;;19.67;14.00;;;18.70;74.30;;;;;;5101855;28;20481;-79
2023/09/10 01:41:03;;;;;;;18.43;13.07;;;18.60;74.50;;;;;;5090227;28;20459;-81
2023/09/10 01:43:34;;;;;;;21.70;14.03;;;18.60;74.40;;;;;;5104699;28;20933;-78
2023/09/10 01:46:04;;;;;;;17.03;13.07;;;18.60;74.40;;;;;;5109191;28;20509;-79
2023/09/10 01:48:32;;;;;;;16.23;12.67;;;18.60;74.50;;;;;;5089907;28;20452;-77
2023/09/10 01:51:00;;;;;;;17.53;12.73;;;18.60;74.60;;;;;;5104324;28;20518;-77
2023/09/10 01:53:28;;;;;;;17.73;12.60;;;18.60;74.60;;;;;;5088693;28;21053;-82
2023/09/10 01:55:57;;;;;;;18.97;12.80;;;18.60;74.50;;;;;;5112987;28;20470;-80
2023/09/10 01:58:25;;;;;;;17.83;12.67;;;18.60;74.60;;;;;;5087575;28;20520;-79
2023/09/10 02:00:55;;;;;;;15.33;11.63;;;18.60;74.60;;;;;;5086787;28;20533;-78
2023/09/10 02:03:23;;;;;;;16.50;12.00;;;18.70;74.60;;;;;;5088138;28;20619;-79
2023/09/10 02:05:52;;;;;;;15.63;12.47;;;18.70;74.60;;;;;;5108513;28;20451;-78
2023/09/10 02:08:19;;;;;;;15.77;12.10;;;18.70;74.60;;;;;;5088800;28;20455;-80
2023/09/10 02:10:48;;;;;;;14.90;11.70;;;18.70;74.50;;;;;;5080195;28;20925;-78
2023/09/10 02:13:16;;;;;;;16.03;11.80;;;18.70;74.40;;;;;;5104956;28;20559;-80
2023/09/10 02:15:44;;;;;;;16.87;12.87;;;18.60;74.40;;;;;;5109363;28;21188;-79
2023/09/10 02:18:22;;;;;;;16.13;12.47;;;18.60;74.50;;;;;;5090376;28;20467;-79
2023/09/10 02:20:50;;;;;;;16.77;12.80;;;18.60;74.50;;;;;;5091504;28;20455;-80
2023/09/10 02:23:18;;;;;;;15.93;12.57;;;18.50;74.40;;;;;;5090949;28;21008;-82
2023/09/10 02:25:46;;;;;;;16.97;12.83;;;18.50;74.40;;;;;;5091824;28;20475;-78
2023/09/10 02:28:14;;;;;;;20.90;13.83;;;18.40;74.40;;;;;;5110978;28;20452;-80
2023/09/10 02:30:42;;;;;;;17.37;13.33;;;18.40;74.50;;;;;;5104194;28;20497;-79
2023/09/10 02:33:10;;;;;;;16.17;12.73;;;18.40;74.40;;;;;;5104911;28;20470;-78
2023/09/10 02:35:40;;;;;;;18.13;12.30;;;18.30;74.40;;;;;;5089235;28;20459;-82
2023/09/10 02:38:07;;;;;;;18.80;12.70;;;18.20;74.50;;;;;;5106167;28;20482;-81
2023/09/10 02:40:36;;;;;;;16.60;11.73;;;18.20;74.60;;;;;;5107454;28;20459;-81
2023/09/10 02:43:04;;;;;;;18.40;13.03;;;18.20;74.80;;;;;;5104206;28;20482;-80
2023/09/10 02:45:32;;;;;;;16.40;12.87;;;18.10;74.80;;;;;;5089823;28;20462;-80
2023/09/10 02:48:00;;;;;;;19.13;14.73;;;18.10;74.90;;;;;;5108718;28;20833;-78
2023/09/10 02:50:29;;;;;;;21.10;14.50;;;18.10;75.00;;;;;;5087853;28;20874;-78
2023/09/10 02:52:58;;;;;;;24.77;15.03;;;18.10;75.00;;;;;;5098258;28;20500;-77
2023/09/10 02:55:26;;;;;;;19.90;14.27;;;18.10;75.00;;;;;;5092012;28;20538;-80
2023/09/10 02:57:54;;;;;;;20.50;14.47;;;18.10;75.00;;;;;;5092303;28;20519;-80
2023/09/10 03:00:25;;;;;;;20.00;13.37;;;18.00;74.80;;;;;;5108578;28;20454;-80
2023/09/10 03:02:54;;;;;;;16.03;12.40;;;17.90;74.90;;;;;;5089520;28;20482;-78
2023/09/10 03:05:23;;;;;;;16.10;12.50;;;17.80;75.20;;;;;;5089158;28;20455;-79
2023/09/10 03:07:53;;;;;;;19.07;13.40;;;17.80;75.40;;;;;;5103807;28;20456;-79
2023/09/10 03:10:22;;;;;;;19.80;13.63;;;17.70;75.50;;;;;;5083875;28;20467;-79
2023/09/10 03:12:50;;;;;;;16.40;13.07;;;17.70;75.70;;;;;;5084672;28;20464;-82
2023/09/10 03:15:18;;;;;;;18.80;13.17;;;17.80;75.80;;;;;;5090806;28;20444;-80
2023/09/10 03:17:47;;;;;;;19.10;13.30;;;17.80;75.80;;;;;;5106520;28;20487;-79
2023/09/10 03:20:15;;;;;;;18.00;12.23;;;17.90;75.90;;;;;;5089985;28;20762;-81
2023/09/10 03:22:43;;;;;;;14.90;12.83;;;17.90;75.70;;;;;;5106298;28;20459;-80
2023/09/10 03:25:11;;;;;;;17.80;13.50;;;17.90;75.70;;;;;;5090078;28;20529;-79
2023/09/10 03:27:41;;;;;;;16.37;12.10;;;17.80;75.70;;;;;;5090105;28;20482;-79
2023/09/10 03:30:10;;;;;;;17.87;14.23;;;17.80;75.60;;;;;;5085201;28;20464;-78
2023/09/10 03:32:38;;;;;;;17.53;13.50;;;17.80;75.60;;;;;;5105913;28;20525;-80
2023/09/10 03:35:07;;;;;;;17.70;13.50;;;17.70;75.70;;;;;;5089203;28;20957;-81
2023/09/10 03:37:35;;;;;;;16.67;13.23;;;17.70;75.70;;;;;;5088506;28;20479;-81
2023/09/10 03:40:06;;;;;;;16.57;12.40;;;17.70;75.70;;;;;;5087391;27;20474;-80
2023/09/10 03:42:34;;;;;;;16.07;12.07;;;17.70;75.80;;;;;;5106091;28;21308;-80
2023/09/10 03:45:05;;;;;;;17.23;13.20;;;17.70;75.70;;;;;;5086547;28;21366;-80
2023/09/10 03:47:33;;;;;;;16.33;13.53;;;17.70;75.80;;;;;;5104520;27;20455;-80
2023/09/10 03:50:02;;;;;;;18.60;12.00;;;17.70;75.90;;;;;;5104976;28;20452;-80
2023/09/10 03:52:32;;;;;;;22.17;15.10;;;17.80;75.90;;;;;;5086345;28;21021;-80
2023/09/10 03:55:00;;;;;;;19.90;15.47;;;17.80;75.80;;;;;;5090894;28;20801;-80
2023/09/10 03:57:29;;;;;;;28.13;18.50;;;17.80;75.80;;;;;;5106628;27;20448;-80
2023/09/10 03:59:57;;;;;;;21.10;15.70;;;17.80;75.80;;;;;;5107312;28;20475;-81
2023/09/10 04:02:28;;;;;;;20.87;15.00;;;17.80;75.80;;;;;;5088701;28;20928;-79
2023/09/10 04:04:56;;;;;;;20.33;14.70;;;17.90;75.70;;;;;;5091644;28;20818;-78
2023/09/10 04:07:24;;;;;;;20.20;14.27;;;17.90;75.60;;;;;;5109909;28;20464;-79
2023/09/10 04:09:54;;;;;;;17.07;12.73;;;17.90;75.40;;;;;;5105740;28;20478;-80
2023/09/10 04:12:21;;;;;;;17.57;12.43;;;17.80;75.20;;;;;;5108316;28;20966;-78
2023/09/10 04:14:49;;;;;;;16.67;13.43;;;17.80;75.20;;;;;;5089220;28;20455;-78
2023/09/10 04:17:18;;;;;;;19.50;13.50;;;17.80;75.20;;;;;;5107276;28;20452;-78
2023/09/10 04:19:48;;;;;;;19.83;14.43;;;17.70;75.20;;;;;;5088536;28;20476;-77
2023/09/10 04:22:16;;;;;;;21.17;15.20;;;17.70;75.30;;;;;;5109296;28;21033;-79
2023/09/10 04:24:44;;;;;;;20.40;13.80;;;17.70;75.30;;;;;;5109144;27;20456;-80
2023/09/10 04:27:12;;;;;;;18.90;13.30;;;17.70;75.30;;;;;;5104629;28;20467;-78
2023/09/10 04:29:40;;;;;;;18.20;12.93;;;17.70;75.30;;;;;;5089547;28;20453;-81
2023/09/10 04:32:09;;;;;;;17.00;13.20;;;17.70;75.20;;;;;;5103239;28;21009;-77
2023/09/10 04:34:37;;;;;;;17.20;12.53;;;17.70;75.20;;;;;;5090773;28;20551;-78
2023/09/10 04:37:06;;;;;;;15.73;11.97;;;17.70;75.20;;;;;;5089934;28;20461;-77
2023/09/10 04:39:35;;;;;;;17.90;13.53;;;17.70;75.10;;;;;;5090104;28;20490;-80
2023/09/10 04:42:03;;;;;;;17.80;13.90;;;17.60;75.00;;;;;;5105716;28;20470;-80
2023/09/10 04:44:31;;;;;;;21.80;12.50;;;17.60;75.00;;;;;;5089670;28;20455;-77
2023/09/10 04:46:59;;;;;;;19.23;14.00;;;17.50;75.00;;;;;;5089175;28;20517;-79
2023/09/10 04:49:28;;;;;;;17.10;13.17;;;17.50;75.00;;;;;;5090361;28;20466;-79
2023/09/10 04:51:56;;;;;;;17.47;12.33;;;17.40;75.00;;;;;;5107831;28;21012;-78
2023/09/10 04:54:25;;;;;;;21.77;13.60;;;17.40;75.20;;;;;;5089488;28;20906;-77
2023/09/10 04:56:53;;;;;;;15.87;12.23;;;17.40;75.20;;;;;;5106255;27;20460;-80
2023/09/10 04:59:26;;;;;;;17.07;13.07;;;17.50;75.20;;;;;;5090298;28;21208;-78
2023/09/10 05:01:54;;;;;;;15.50;11.90;;;17.50;75.20;;;;;;5088777;28;20499;-78
2023/09/10 05:04:22;;;;;;;16.27;11.93;;;17.50;75.20;;;;;;5107675;28;20479;-80
2023/09/10 05:06:50;;;;;;;17.20;12.63;;;17.50;75.20;;;;;;5109450;28;20532;-81
2023/09/10 05:09:18;;;;;;;17.90;12.33;;;17.60;75.20;;;;;;5104954;27;20448;-79
2023/09/10 05:11:48;;;;;;;21.77;13.30;;;17.60;75.20;;;;;;5093851;28;20459;-77
2023/09/10 05:14:26;;;;;;;19.57;13.00;;;17.60;75.10;;;;;;5108035;28;20521;-80
2023/09/10 05:16:57;;;;;;;16.03;12.20;;;17.60;75.00;;;;;;5090316;28;20463;-77
2023/09/10 05:19:25;;;;;;;19.30;13.50;;;17.60;74.90;;;;;;5090133;28;20521;-78
2023/09/10 05:21:55;;;;;;;17.90;14.10;;;17.60;75.00;;;;;;5091949;28;20863;-80
2023/09/10 05:24:24;;;;;;;18.00;13.00;;;17.60;74.80;;;;;;5087834;28;20460;-79
2023/09/10 05:26:53;;;;;;;19.40;13.87;;;17.60;74.90;;;;;;5109614;28;20456;-79
2023/09/10 05:29:21;;;;;;;17.90;13.60;;;17.60;75.00;;;;;;5108749;28;20492;-82
2023/09/10 05:31:49;;;;;;;17.80;13.80;;;17.60;75.10;;;;;;5073201;28;20480;-81
2023/09/10 05:34:18;;;;;;;17.53;13.27;;;17.60;75.20;;;;;;5067965;28;20557;-78
2023/09/10 05:36:47;;;;;;;20.17;14.03;;;17.60;75.20;;;;;;5097437;28;20800;-79
2023/09/10 05:39:15;;;;;;;30.77;19.70;;;17.70;75.30;;;;;;5086013;28;20521;-78
2023/09/10 05:41:44;;;;;;;32.53;19.97;;;17.70;75.30;;;;;;5069530;28;20468;-78
2023/09/10 05:44:14;;;;;;;23.53;17.20;;;17.70;75.40;;;;;;5067069;28;20476;-78
2023/09/10 05:46:42;;;;;;;27.50;18.37;;;17.70;75.60;;;;;;5063937;28;20488;-79
2023/09/10 05:49:12;;;;;;;27.23;19.23;;;17.70;75.60;;;;;;5066946;28;20465;-79
2023/09/10 05:51:40;;;;;;;23.13;16.40;;;17.70;75.60;;;;;;5082742;28;20452;-77
2023/09/10 05:54:09;;;;;;;25.47;17.13;;;17.60;75.70;;;;;;5067657;28;20457;-82
2023/09/10 05:56:37;;;;;;;24.87;17.70;;;17.50;75.80;;;;;;5068293;28;20545;-81
2023/09/10 05:59:07;;;;;;;29.43;18.47;;;17.50;76.00;;;;;;5065184;28;20460;-79
2023/09/10 06:01:36;;;;;;;23.70;17.27;;;17.50;76.20;;;;;;5062188;28;20485;-79
2023/09/10 06:04:05;;;;;;;21.67;15.77;;;17.50;76.40;;;;;;5067668;28;20449;-80
2023/09/10 06:06:34;;;;;;;27.47;17.97;;;17.60;76.60;;;;;;5067280;28;20473;-78
2023/09/10 06:09:04;;;;;;;27.60;16.23;;;17.70;76.70;;;;;;5065927;28;20540;-81
2023/09/10 06:11:32;;;;;;;22.90;17.57;;;17.70;76.80;;;;;;5068955;28;20456;-80
2023/09/10 06:14:00;;;;;;;25.17;15.37;;;17.80;76.80;;;;;;5069981;28;20463;-79
2023/09/10 06:16:29;;;;;;;23.00;15.83;;;17.80;76.80;;;;;;5069432;28;20506;-79
2023/09/10 06:18:59;;;;;;;19.90;15.57;;;17.90;76.80;;;;;;5068892;28;20506;-78
2023/09/10 06:21:28;;;;;;;19.77;15.07;;;18.00;76.90;;;;;;5087491;28;20472;-79
2023/09/10 06:23:58;;;;;;;20.80;17.30;;;18.00;76.90;;;;;;5062511;28;20468;-78
2023/09/10 06:26:26;;;;;;;21.70;15.13;;;18.00;77.00;;;;;;5084707;28;20517;-77
2023/09/10 06:28:54;;;;;;;23.57;15.00;;;18.10;77.30;;;;;;5071440;28;20891;-79
2023/09/10 06:31:22;;;;;;;22.30;15.20;;;18.10;77.40;;;;;;5086504;28;20480;-78
2023/09/10 06:33:50;;;;;;;18.77;15.17;;;18.20;77.50;;;;;;5067193;28;20449;-80
2023/09/10 06:36:20;;;;;;;18.60;14.33;;;18.20;77.70;;;;;;5059197;28;20467;-78
2023/09/10 06:38:48;;;;;;;20.90;16.20;;;18.30;77.80;;;;;;5082297;28;20448;-78
2023/09/10 06:41:17;;;;;;;20.23;14.40;;;18.40;77.90;;;;;;5065787;28;20477;-80
2023/09/10 06:43:46;;;;;;;19.30;15.83;;;18.50;78.00;;;;;;5085816;28;20503;-78
2023/09/10 06:46:17;;;;;;;17.03;14.17;;;18.50;78.10;;;;;;5068201;28;20448;-80
2023/09/10 06:48:45;;;;;;;23.37;14.70;;;18.50;78.30;;;;;;5072650;28;20459;-82
2023/09/10 06:51:15;;;;;;;18.37;15.20;;;18.60;78.40;;;;;;5090530;28;20534;-79
2023/09/10 06:53:44;;;;;;;19.17;14.80;;;18.70;78.50;;;;;;5085922;28;20445;-79
2023/09/10 06:56:12;;;;;;;19.60;13.90;;;18.70;78.60;;;;;;5088008;28;20456;-80
2023/09/10 06:58:40;;;;;;;19.17;15.73;;;18.80;78.60;;;;;;5090374;28;20497;-80
2023/09/10 07:01:09;;;;;;;18.87;15.10;;;18.80;78.70;;;;;;5092156;28;21032;-82
2023/09/10 07:03:39;;;;;;;17.50;14.90;;;18.90;78.80;;;;;;5092030;28;20449;-81
2023/09/10 07:06:07;;;;;;;16.00;13.47;;;18.90;79.00;;;;;;5094632;28;20991;-78
2023/09/10 07:08:36;;;;;;;17.53;14.00;;;19.00;79.10;;;;;;5090536;28;20510;-81
2023/09/10 07:11:07;;;;;;;18.93;15.43;;;19.10;79.10;;;;;;5091174;28;20465;-79
2023/09/10 07:13:36;;;;;;;21.17;14.00;;;19.10;79.20;;;;;;5090655;28;20452;-80
2023/09/10 07:16:05;;;;;;;17.23;13.67;;;19.20;79.20;;;;;;5090271;28;20456;-81
2023/09/10 07:18:33;;;;;;;17.63;13.73;;;19.30;79.20;;;;;;5085775;28;20973;-81
2023/09/10 07:21:01;;;;;;;18.67;13.23;;;19.30;79.20;;;;;;5091571;28;20468;-80
2023/09/10 07:23:30;;;;;;;21.27;12.13;;;19.30;79.30;;;;;;5088541;28;20457;-82
2023/09/10 07:25:57;;;;;;;16.00;12.30;;;19.30;79.30;;;;;;5089771;28;21128;-79
2023/09/10 07:28:27;;;;;;;15.77;12.40;;;19.40;79.40;;;;;;5086401;28;20971;-79
2023/09/10 07:30:55;;;;;;;16.07;11.80;;;19.40;79.50;;;;;;5085445;28;20547;-79
2023/09/10 07:33:23;;;;;;;17.17;12.47;;;19.50;79.50;;;;;;5088274;28;20456;-78
2023/09/10 07:35:51;;;;;;;17.60;12.70;;;19.50;79.50;;;;;;5091370;28;20456;-80
2023/09/10 07:38:19;;;;;;;13.70;11.43;;;19.60;79.60;;;;;;5087543;28;20884;-78
2023/09/10 07:40:47;;;;;;;14.20;11.30;;;19.60;79.60;;;;;;5077952;28;20472;-78
2023/09/10 07:43:17;;;;;;;14.40;11.33;;;19.70;79.60;;;;;;5090326;28;21152;-79
2023/09/10 07:45:46;;;;;;;15.43;10.83;;;19.70;79.60;;;;;;5089150;28;20464;-79
2023/09/10 07:48:14;;;;;;;13.57;10.90;;;19.80;79.60;;;;;;5091276;28;20452;-78
2023/09/10 07:50:52;;;;;;;16.00;12.03;;;19.80;79.80;;;;;;5088652;28;20935;-77
2023/09/10 07:53:22;;;;;;;15.10;11.30;;;19.90;79.80;;;;;;5086547;28;20455;-79
2023/09/10 07:55:50;;;;;;;14.77;11.20;;;19.90;79.80;;;;;;5089945;28;20456;-79
2023/09/10 07:58:19;;;;;;;21.93;10.50;;;20.00;79.70;;;;;;5086976;28;20598;-77
2023/09/10 08:00:50;;;;;;;22.40;10.87;;;20.00;79.80;;;;;;5085805;28;20484;-78
2023/09/10 08:03:18;;;;;;;13.93;11.30;;;20.10;79.70;;;;;;5078320;28;20530;-78
2023/09/10 08:05:47;;;;;;;14.00;11.33;;;20.20;79.70;;;;;;5087308;28;21044;-78
2023/09/10 08:08:15;;;;;;;15.13;11.50;;;20.20;79.70;;;;;;5087867;28;20552;-79
2023/09/10 08:10:45;;;;;;;18.10;11.00;;;20.30;79.80;;;;;;5087369;28;20879;-77
2023/09/10 08:13:14;;;;;;;15.43;11.03;;;20.30;79.90;;;;;;5074443;28;20462;-80
2023/09/10 08:15:42;;;;;;;13.23;11.40;;;20.40;79.90;;;;;;5084898;28;20457;-79
2023/09/10 08:18:12;;;;;;;22.67;10.53;;;20.40;79.80;;;;;;5083703;28;20542;-78
2023/09/10 08:20:42;;;;;;;14.33;10.60;;;20.50;79.80;;;;;;5080429;28;20959;-79
2023/09/10 08:23:10;;;;;;;13.10;10.30;;;20.50;79.90;;;;;;5078509;28;20485;-78
2023/09/10 08:25:38;;;;;;;12.87;10.20;;;20.60;80.00;;;;;;5083312;28;20473;-79
2023/09/10 08:28:06;;;;;;;12.83;10.40;;;20.60;80.00;;;;;;5083352;28;20459;-79
2023/09/10 08:30:35;;;;;;;15.80;11.00;;;20.70;80.00;;;;;;5085416;28;20558;-77
2023/09/10 08:33:03;;;;;;;17.10;11.20;;;20.70;80.10;;;;;;5082602;28;21145;-78
2023/09/10 08:35:45;;;;;;;14.27;10.70;;;20.80;80.00;;;;;;5080989;28;20440;-80
2023/09/10 08:38:14;;;;;;;17.37;11.70;;;20.90;80.00;;;;;;5082513;28;20943;-79
2023/09/10 08:40:48;;;;;;;16.53;11.13;;;20.90;80.00;;;;;;5072306;28;20468;-80
2023/09/10 08:43:19;;;;;;;13.40;10.77;;;21.00;80.00;;;;;;5075780;28;20491;-77
2023/09/10 08:45:48;;;;;;;13.30;10.40;;;21.10;79.90;;;;;;5080810;28;20471;-78
2023/09/10 08:48:18;;;;;;;14.17;10.03;;;21.10;79.90;;;;;;5061068;28;20817;-79
2023/09/10 08:50:49;;;;;;;14.73;10.03;;;21.20;79.70;;;;;;5081676;28;20460;-79
2023/09/10 08:53:20;;;;;;;13.70;11.13;;;21.20;79.60;;;;;;5078014;28;21526;-79
2023/09/10 08:55:49;;;;;;;16.40;11.00;;;21.30;79.60;;;;;;5080557;28;20461;-79
2023/09/10 08:58:18;;;;;;;15.73;10.37;;;21.40;79.60;;;;;;5085529;28;20481;-79
2023/09/10 09:00:50;;;;;;;14.03;9.90;;;21.40;79.60;;;;;;5080321;28;20488;-78
2023/09/10 09:03:21;;;;;;;15.90;10.63;;;21.50;79.50;;;;;;5083913;28;20465;-78
2023/09/10 09:05:55;;;;;;;16.73;10.63;;;21.60;79.40;;;;;;5082659;28;20551;-81
2023/09/10 09:08:26;;;;;;;16.20;11.20;;;21.60;79.10;;;;;;5099646;28;20457;-78
2023/09/10 09:10:54;;;;;;;14.27;10.70;;;21.70;79.00;;;;;;5089865;28;20849;-80
2023/09/10 09:13:23;;;;;;;14.40;10.77;;;21.80;78.90;;;;;;5087691;28;20944;-77
2023/09/10 09:15:52;;;;;;;13.33;10.53;;;21.80;78.80;;;;;;5084627;28;20464;-80
2023/09/10 09:18:21;;;;;;;15.17;11.23;;;21.90;78.70;;;;;;5077211;28;20456;-79
2023/09/10 09:20:57;;;;;;;13.60;10.77;;;21.90;78.80;;;;;;5078721;28;20465;-79
2023/09/10 09:23:30;;;;;;;12.80;9.87;;;22.00;78.70;;;;;;5078802;28;20950;-78
2023/09/10 09:25:59;;;;;;;14.60;11.13;;;22.10;78.70;;;;;;5078802;28;20794;-80
2023/09/10 09:28:29;;;;;;;16.30;11.00;;;22.20;78.60;;;;;;5080673;28;20486;-79
2023/09/10 09:30:57;;;;;;;13.50;10.60;;;22.20;78.50;;;;;;5072159;28;20541;-80
2023/09/10 09:33:25;;;;;;;12.50;10.33;;;22.30;78.60;;;;;;5079399;28;20532;-81
2023/09/10 09:36:05;;;;;;;17.97;10.30;;;22.40;78.50;;;;;;5079081;28;20463;-79
2023/09/10 09:38:33;;;;;;;12.93;9.90;;;22.40;78.30;;;;;;5083190;28;20453;-79
2023/09/10 09:41:03;;;;;;;12.23;10.40;;;22.50;78.30;;;;;;5080884;28;20544;-81
2023/09/10 09:43:34;;;;;;;11.53;9.60;;;22.60;78.10;;;;;;5073168;28;20878;-80
2023/09/10 09:46:04;;;;;;;12.33;9.90;;;22.60;77.90;;;;;;5062837;28;20468;-80
2023/09/10 09:48:35;;;;;;;13.10;9.20;;;22.70;77.90;;;;;;5079338;28;20499;-77
2023/09/10 09:51:06;;;;;;;11.97;9.27;;;22.80;77.70;;;;;;5078348;28;20472;-79
2023/09/10 09:53:35;;;;;;;11.87;9.03;;;22.90;77.40;;;;;;5066300;28;20802;-79
2023/09/10 09:56:05;;;;;;;11.67;8.10;;;22.90;77.10;;;;;;5080645;28;20807;-79
2023/09/10 09:58:33;;;;;;;13.60;9.07;;;23.00;77.10;;;;;;5080447;28;20984;-79
2023/09/10 10:01:01;;;;;;;10.80;8.87;;;23.10;76.80;;;;;;5078608;28;20497;-78
2023/09/10 10:03:31;;;;;;;12.57;7.93;;;23.10;76.60;;;;;;5066898;28;20550;-79
2023/09/10 10:05:59;;;;;;;11.60;9.20;;;23.20;76.40;;;;;;5081805;28;20468;-78
2023/09/10 10:08:30;;;;;;;11.97;8.57;;;23.30;76.40;;;;;;5080994;28;20496;-78
2023/09/10 10:10:58;;;;;;;11.00;8.33;;;23.40;76.20;;;;;;5097402;28;20526;-79
2023/09/10 10:13:28;;;;;;;10.80;8.40;;;23.40;76.00;;;;;;5078192;28;20611;-79
2023/09/10 10:15:56;;;;;;;13.70;8.73;;;23.50;75.60;;;;;;5082184;28;20898;-78
2023/09/10 10:18:27;;;;;;;15.40;9.10;;;23.50;75.60;;;;;;5080101;28;20457;-78
2023/09/10 10:20:59;;;;;;;12.13;8.13;;;23.60;75.60;;;;;;5080921;28;20468;-78
2023/09/10 10:23:27;;;;;;;11.60;7.60;;;23.70;75.40;;;;;;5084715;28;20491;-79
2023/09/10 10:25:59;;;;;;;11.20;8.07;;;23.80;75.40;;;;;;5084796;28;20938;-79
2023/09/10 10:28:28;;;;;;;15.57;8.50;;;23.90;75.00;;;;;;5081326;28;20457;-78
2023/09/10 10:31:03;;;;;;;13.00;8.20;;;24.00;74.70;;;;;;5073613;28;20512;-79
2023/09/10 10:33:37;;;;;;;10.90;7.90;;;24.10;74.40;;;;;;5081442;28;20811;-78
2023/09/10 10:36:14;;;;;;;11.33;8.20;;;24.20;74.20;;;;;;5099229;28;20456;-78
2023/09/10 10:38:46;;;;;;;12.50;8.03;;;24.20;73.80;;;;;;5082331;28;20541;-78
2023/09/10 10:41:18;;;;;;;11.57;8.43;;;24.30;73.60;;;;;;5083308;28;20883;-78
2023/09/10 10:43:51;;;;;;;13.30;8.60;;;24.30;73.50;;;;;;5083917;28;20494;-79
2023/09/10 10:46:25;;;;;;;10.90;8.90;;;24.40;73.50;;;;;;5086855;28;20472;-79
2023/09/10 10:48:53;;;;;;;12.60;8.40;;;24.40;73.20;;;;;;5084666;28;20488;-78
2023/09/10 10:51:22;;;;;;;10.70;8.23;;;24.50;72.80;;;;;;5085247;28;20500;-78
2023/09/10 10:53:51;;;;;;;11.40;8.30;;;24.60;72.40;;;;;;5079976;28;20453;-79
2023/09/10 10:56:21;;;;;;;10.13;7.67;;;24.60;72.10;;;;;;5083433;28;20477;-78
2023/09/10 10:58:49;;;;;;;15.40;9.00;;;24.60;72.00;;;;;;5084696;28;20521;-79
2023/09/10 11:01:17;;;;;;;12.30;8.50;;;24.70;72.00;;;;;;5072001;28;20472;-79
2023/09/10 11:03:45;;;;;;;11.80;8.33;;;24.70;72.00;;;;;;5078335;28;21066;-79
2023/09/10 11:06:14;;;;;;;11.97;8.37;;;24.80;71.70;;;;;;5084809;28;20513;-79
2023/09/10 11:08:43;;;;;;;13.70;9.60;;;24.80;71.50;;;;;;5082400;28;20456;-79
2023/09/10 11:11:50;;;;;;;15.47;8.37;;;24.90;71.30;;;;;;5083503;28;20459;-79
2023/09/10 11:14:18;;;;;;;12.47;7.60;;;24.90;71.00;;;;;;5101911;28;20468;-79
2023/09/10 11:16:46;;;;;;;11.63;8.90;;;24.90;71.00;;;;;;5084508;28;20461;-78
2023/09/10 11:19:44;;;;;;;16.20;8.77;;;25.00;71.00;;;;;;5090368;28;20476;-79
2023/09/10 11:22:13;;;;;;;12.40;9.00;;;25.00;70.90;;;;;;5088455;28;20462;-79
2023/09/10 11:24:41;;;;;;;12.10;7.87;;;25.00;70.80;;;;;;5087163;28;20495;-79
2023/09/10 11:27:21;;;;;;;12.30;9.00;;;25.10;70.40;;;;;;5081847;28;20468;-79
2023/09/10 11:30:11;;;;;;;12.77;8.60;;;25.20;70.00;;;;;;5084254;28;20472;-79
2023/09/10 11:32:40;;;;;;;12.23;8.27;;;25.30;69.70;;;;;;5102289;28;20574;-78
2023/09/10 11:35:26;;;;;;;13.33;8.40;;;25.40;69.60;;;;;;5103686;28;20455;-78
2023/09/10 11:37:56;;;;;;;13.80;8.30;;;25.40;69.40;;;;;;5107395;27;20535;-79
2023/09/10 11:40:26;;;;;;;14.87;8.60;;;25.40;69.30;;;;;;5107728;28;20468;-80
2023/09/10 11:42:56;;;;;;;15.83;7.63;;;25.40;69.00;;;;;;5090202;28;20472;-81
2023/09/10 11:45:30;;;;;;;9.70;6.87;;;25.40;68.60;;;;;;5102348;28;20463;-80
2023/09/10 11:47:58;;;;;;;12.20;7.70;;;25.40;68.30;;;;;;5091827;28;20543;-79
2023/09/10 11:50:28;;;;;;;12.50;7.80;;;25.40;67.90;;;;;;5110456;28;21274;-80
2023/09/10 11:52:58;;;;;;;12.33;8.30;;;25.40;67.60;;;;;;5109472;28;20497;-79
2023/09/10 11:55:28;;;;;;;15.43;7.80;;;25.50;67.60;;;;;;5110640;28;20483;-79
2023/09/10 11:57:57;;;;;;;13.43;8.10;;;25.50;67.50;;;;;;5110146;28;20472;-80
2023/09/10 12:00:25;;;;;;;11.50;6.60;;;25.60;67.30;;;;;;5101326;28;20499;-80
2023/09/10 12:02:55;;;;;;;11.07;7.50;;;25.60;67.10;;;;;;5091377;28;20463;-78
2023/09/10 12:05:26;;;;;;;16.57;7.60;;;25.70;66.80;;;;;;5091493;28;20472;-79
2023/09/10 12:07:58;;;;;;;12.37;7.20;;;25.70;66.70;;;;;;5087923;28;20472;-79
2023/09/10 12:10:26;;;;;;;11.50;8.00;;;25.80;66.60;;;;;;5072546;28;20476;-80
2023/09/10 12:12:56;;;;;;;13.20;7.60;;;25.80;66.50;;;;;;5090988;28;20961;-80
2023/09/10 12:15:26;;;;;;;14.87;7.67;;;25.90;66.40;;;;;;5090174;28;21162;-79
2023/09/10 12:17:54;;;;;;;10.67;8.20;;;25.90;66.30;;;;;;5086086;28;20548;-80
2023/09/10 12:20:24;;;;;;;13.63;8.00;;;25.90;66.10;;;;;;5090832;28;20488;-79
2023/09/10 12:22:52;;;;;;;11.57;7.50;;;26.00;66.00;;;;;;5068738;28;20467;-79
2023/09/10 12:25:20;;;;;;;12.20;7.60;;;26.00;65.90;;;;;;5070835;28;20536;-79
2023/09/10 12:27:48;;;;;;;11.57;8.10;;;26.00;65.70;;;;;;5090180;28;20503;-79
2023/09/10 12:30:16;;;;;;;12.50;7.33;;;26.00;65.40;;;;;;5090117;28;20572;-78
2023/09/10 12:32:46;;;;;;;11.03;7.10;;;26.10;65.40;;;;;;5085568;28;20543;-79
2023/09/10 12:35:14;;;;;;;15.07;5.97;;;26.10;65.30;;;;;;5075150;28;21112;-79
2023/09/10 12:37:48;;;;;;;11.43;7.23;;;26.10;64.90;;;;;;5092332;28;20449;-80
2023/09/10 12:40:16;;;;;;;12.37;6.70;;;26.20;64.80;;;;;;5076912;28;20569;-78
2023/09/10 12:42:44;;;;;;;15.50;6.83;;;26.30;64.40;;;;;;5087353;28;20516;-77
2023/09/10 12:45:12;;;;;;;11.83;6.80;;;26.30;63.90;;;;;;5087535;28;20516;-79
2023/09/10 12:47:41;;;;;;;11.80;6.67;;;26.30;63.80;;;;;;5086522;28;20861;-78